Time;durP1;ratioP1;P1;durP2;ratioP2;P2;SDS_P1;SDS_P2;PMS_P1;PMS_P2;Temp;Humidity;BMP_temperature;BMP_pressure;BME280_temperature;BME280_humidity;BME280_pressure;Samples;Min_cycle;Max_cycle;Signal;HPM_P1;HPM_P2
2024/03/25 00:02:02;;;;;;;22.70;5.50;;;;;;;-144.05;85.65;57001.75;5063665;28;20035;-79
2024/03/25 00:04:28;;;;;;;28.95;6.28;;;2.30;99.90;;;-144.05;85.53;57016.63;5063123;28;20542;-81
2024/03/25 00:06:53;;;;;;;25.35;6.13;;;4.50;99.90;;;-144.05;84.70;57016.63;5086015;28;20029;-80
2024/03/25 00:09:20;;;;;;;27.75;6.00;;;;;;;-144.05;84.87;57031.50;5084312;28;20027;-79
2024/03/25 00:11:46;;;;;;;26.15;5.95;;;3.00;99.90;;;-144.05;84.30;57010.25;5087091;28;20052;-80
2024/03/25 00:14:12;;;;;;;20.52;5.30;;;2.80;99.90;;;-144.05;84.40;56999.63;5065302;28;20055;-79
2024/03/25 00:16:38;;;;;;;22.95;4.88;;;6.70;99.90;;;-144.05;84.92;57040.00;5070386;28;20115;-80
2024/03/25 00:19:04;;;;;;;26.48;6.18;;;2.50;99.90;;;-144.05;85.17;57033.63;5089377;28;20031;-79
2024/03/25 00:21:29;;;;;;;17.45;4.88;;;2.40;99.90;;;-144.05;85.34;57016.63;5063805;28;20029;-78
2024/03/25 00:23:58;;;;;;;25.80;5.40;;;2.70;99.90;;;-144.05;85.92;57025.13;5080641;28;20063;-78
2024/03/25 00:26:24;;;;;;;27.75;5.28;;;2.30;99.90;;;-144.05;86.25;57008.13;5085009;28;20031;-78
2024/03/25 00:28:50;;;;;;;19.05;5.63;;;2.30;99.90;;;-144.05;86.93;57006.00;5086128;28;20033;-79
2024/03/25 00:31:16;;;;;;;28.60;6.40;;;2.80;99.90;;;-144.05;87.42;57035.75;5058066;28;20028;-79
2024/03/25 00:33:41;;;;;;;19.70;4.93;;;2.60;99.90;;;-144.05;87.19;57027.25;5087688;28;20401;-78
2024/03/25 00:36:08;;;;;;;22.25;5.97;;;;;;;-144.05;87.53;57012.38;5070831;28;20093;-78
2024/03/25 00:38:33;;;;;;;18.27;5.80;;;2.00;99.90;;;-144.05;88.15;57020.88;5066531;28;20035;-79
2024/03/25 00:41:00;;;;;;;25.83;6.25;;;;;;;-144.05;88.21;57008.13;5073493;28;20020;-79
2024/03/25 00:43:25;;;;;;;26.80;7.05;;;2.50;99.90;;;-144.05;88.38;57001.75;5067231;28;20036;-78
2024/03/25 00:45:51;;;;;;;24.00;6.97;;;2.20;99.90;;;-144.05;88.72;57035.75;5087431;28;20032;-79
2024/03/25 00:48:17;;;;;;;32.70;7.95;;;;;;;-144.05;88.77;57027.25;5087046;28;20028;-79
2024/03/25 00:50:43;;;;;;;30.83;6.80;;;2.10;99.90;;;-144.05;89.70;57042.13;5072626;28;20039;-79
2024/03/25 00:53:09;;;;;;;31.30;8.18;;;2.00;99.90;;;-144.05;89.46;57008.13;5092345;28;20028;-77
2024/03/25 00:55:35;;;;;;;21.25;7.55;;;2.40;99.90;;;-144.05;90.32;57006.00;5072960;28;20481;-79
2024/03/25 00:58:02;;;;;;;32.33;8.13;;;5.40;99.90;;;-144.05;89.13;57044.25;5084139;28;20024;-78
2024/03/25 01:00:28;;;;;;;18.50;6.60;;;3.00;99.90;;;-144.05;88.85;57006.00;5091782;28;20024;-78
2024/03/25 01:02:55;;;;;;;31.13;7.80;;;;;;;-144.05;88.66;57006.00;5084437;28;20017;-78
2024/03/25 01:05:21;;;;;;;28.63;8.00;;;;;;;-144.05;89.14;57042.13;5067288;28;20028;-77
2024/03/25 01:07:47;;;;;;;32.22;7.03;;;2.50;99.90;;;-144.05;88.63;57033.63;5070993;28;20214;-78
2024/03/25 01:10:13;;;;;;;33.38;8.13;;;2.40;99.90;;;-144.05;88.88;57020.88;5091147;28;20036;-79
2024/03/25 01:12:39;;;;;;;24.15;8.60;;;2.10;99.90;;;-144.05;90.37;57031.50;5089945;28;20500;-80
2024/03/25 01:15:06;;;;;;;27.13;8.52;;;6.20;99.90;;;-144.05;90.02;57044.25;5088758;28;20039;-77
2024/03/25 01:17:32;;;;;;;31.33;8.93;;;;;;;-144.05;88.86;57033.63;5080623;28;20661;-78
2024/03/25 01:19:58;;;;;;;27.15;8.82;;;2.00;99.90;;;-144.05;88.93;57023.00;5105566;28;20028;-79
2024/03/25 01:22:24;;;;;;;29.42;9.23;;;;;;;-144.05;89.03;57040.00;5092050;28;20062;-79
2024/03/25 01:24:50;;;;;;;33.67;8.82;;;2.10;99.90;;;-144.05;89.20;57044.25;5064599;28;20051;-79
2024/03/25 01:27:16;;;;;;;35.70;10.38;;;1.60;99.90;;;-144.05;89.06;57001.75;5090489;28;20036;-79
2024/03/25 01:29:42;;;;;;;25.27;8.90;;;2.10;99.90;;;-144.05;89.35;57025.13;5064579;28;20439;-78
2024/03/25 01:32:07;;;;;;;32.13;10.85;;;2.80;99.90;;;-144.05;90.62;57020.88;5090562;28;20044;-79
2024/03/25 01:34:33;;;;;;;38.83;10.30;;;2.40;99.90;;;-144.05;90.52;57031.50;5089729;28;20091;-77
2024/03/25 01:36:59;;;;;;;36.40;12.27;;;2.40;99.90;;;-144.05;90.77;57018.75;5071247;28;20442;-77
2024/03/25 01:39:25;;;;;;;38.92;12.13;;;1.90;99.90;;;-144.05;90.32;57046.38;5090268;28;20116;-77
2024/03/25 01:41:51;;;;;;;44.42;13.07;;;2.10;99.90;;;-144.05;90.22;57010.25;5088286;28;20108;-79
2024/03/25 01:44:17;;;;;;;41.42;13.40;;;2.10;99.90;;;-144.05;90.57;57014.50;5083301;28;20107;-79
2024/03/25 01:46:43;;;;;;;46.97;14.18;;;1.90;99.90;;;-144.05;90.62;57031.50;5064555;28;20138;-77
2024/03/25 01:49:10;;;;;;;51.60;16.45;;;2.10;99.90;;;-144.05;90.52;57006.00;5069661;28;20509;-75
2024/03/25 01:51:40;;;;;;;53.20;16.50;;;1.70;99.90;;;-144.05;90.52;57042.13;5080740;28;20028;-78
2024/03/25 01:54:08;;;;;;;49.45;16.35;;;1.90;99.90;;;-144.05;90.98;57040.00;5068520;28;20020;-80
2024/03/25 01:56:38;;;;;;;52.13;17.85;;;2.00;99.90;;;-144.05;90.15;57025.13;5076839;28;20028;-80
2024/03/25 01:59:04;;;;;;;44.70;15.57;;;;;;;-144.05;90.27;57031.50;5073491;28;20035;-79
2024/03/25 02:01:30;;;;;;;48.10;12.65;;;1.50;99.90;;;-144.05;90.21;57027.25;5070951;28;20430;-80
2024/03/25 02:03:57;;;;;;;42.30;11.25;;;2.00;99.90;;;-144.05;89.41;57020.88;5070675;28;20033;-80
2024/03/25 02:06:27;;;;;;;36.28;11.70;;;1.80;99.90;;;-144.05;89.86;57031.50;5089809;28;20475;-78
2024/03/25 02:08:56;;;;;;;29.85;10.75;;;1.70;99.90;;;-144.05;88.90;57014.50;5087404;28;20024;-77
2024/03/25 02:11:23;;;;;;;34.03;12.27;;;5.00;99.90;;;-144.05;88.48;57040.00;5071295;28;20028;-79
2024/03/25 02:13:51;;;;;;;33.17;11.82;;;1.90;99.90;;;-144.05;88.45;57012.38;5087947;28;20659;-78
2024/03/25 02:16:17;;;;;;;42.70;13.27;;;1.70;99.90;;;-144.05;88.88;57023.00;5089108;28;20081;-79
2024/03/25 02:18:43;;;;;;;50.08;14.07;;;1.90;99.90;;;-144.05;88.57;57016.63;5087099;28;20096;-77
2024/03/25 02:21:10;;;;;;;34.97;13.13;;;1.80;99.90;;;-144.05;88.26;57018.75;5070744;28;20599;-78
2024/03/25 02:23:42;;;;;;;33.70;13.35;;;2.00;99.90;;;-144.05;88.51;57010.25;5081106;28;20119;-78
2024/03/25 02:26:08;;;;;;;39.90;13.50;;;2.00;99.90;;;-144.05;88.50;57025.13;5082394;28;20024;-78
2024/03/25 02:28:34;;;;;;;32.50;12.25;;;2.00;99.90;;;-144.05;88.61;57014.50;5064386;28;20488;-78
2024/03/25 02:31:00;;;;;;;45.33;15.43;;;;;;;-144.05;89.05;57006.00;5088792;28;20112;-80
2024/03/25 02:33:26;;;;;;;40.92;15.75;;;1.50;99.90;;;-144.05;89.43;57025.13;5098244;28;20508;-78
2024/03/25 02:35:51;;;;;;;47.67;14.77;;;2.10;99.90;;;-144.05;89.67;57031.50;5087212;28;20028;-77
2024/03/25 02:38:18;;;;;;;45.80;15.68;;;1.70;99.90;;;-144.05;90.02;57027.25;5070615;28;20071;-78
2024/03/25 02:40:44;;;;;;;46.47;15.25;;;2.00;99.90;;;-144.05;89.96;57046.38;5086399;28;20111;-78
2024/03/25 02:43:11;;;;;;;44.30;15.90;;;4.90;99.90;;;-144.05;91.23;57040.00;5064619;28;20107;-78
2024/03/25 02:45:37;;;;;;;40.45;14.23;;;1.80;99.90;;;-144.05;91.59;57016.63;5068941;28;20495;-79
2024/03/25 02:48:04;;;;;;;37.97;14.00;;;1.60;99.90;;;-144.05;91.02;57025.13;5087271;28;20024;-79
2024/03/25 02:50:30;;;;;;;42.72;13.38;;;1.60;99.90;;;-144.05;90.96;57056.97;5069755;28;20411;-78
2024/03/25 02:53:02;;;;;;;35.97;12.52;;;1.60;99.90;;;-144.05;91.23;57020.88;5082490;28;20028;-78
2024/03/25 02:55:27;;;;;;;29.92;12.13;;;1.40;99.90;;;-144.05;91.18;57014.50;5078033;28;20020;-79
2024/03/25 02:57:53;;;;;;;38.58;12.82;;;1.10;99.90;;;-144.05;90.88;57016.63;5085512;28;20031;-79
2024/03/25 03:00:19;;;;;;;35.00;11.65;;;2.30;99.90;;;-144.05;90.82;57010.25;5068370;28;20483;-78
2024/03/25 03:02:45;;;;;;;43.33;10.13;;;2.00;99.90;;;-144.05;91.61;57044.25;5085520;28;20026;-79
2024/03/25 03:05:11;;;;;;;38.50;11.18;;;;;;;-144.05;91.43;57012.38;5063109;28;20028;-78
2024/03/25 03:07:37;;;;;;;34.88;10.20;;;1.70;99.90;;;-144.05;91.58;57025.13;5086373;28;20085;-78
2024/03/25 03:10:03;;;;;;;36.05;9.93;;;;;;;-144.05;92.36;57027.25;5079944;28;20025;-78
2024/03/25 03:12:29;;;;;;;32.03;10.43;;;1.60;99.90;;;-144.05;92.31;57003.88;5069567;28;20484;-79
2024/03/25 03:14:55;;;;;;;37.58;10.15;;;1.40;99.90;;;-144.05;92.04;57040.00;5057519;28;20032;-79
2024/03/25 03:17:22;;;;;;;42.35;9.57;;;;;;;-144.05;92.11;57048.50;5065866;28;20481;-79
2024/03/25 03:19:47;;;;;;;30.13;9.77;;;1.70;99.90;;;-144.05;92.13;57018.75;5065605;28;20487;-79
2024/03/25 03:22:13;;;;;;;39.10;11.30;;;;;;;-144.05;92.08;57035.75;5081186;28;20153;-79
2024/03/25 03:24:39;;;;;;;32.65;9.38;;;1.70;99.90;;;-144.05;91.65;57014.50;5064399;28;20024;-78
2024/03/25 03:27:05;;;;;;;37.67;10.02;;;;;;;-144.05;91.23;57006.00;5086256;28;20032;-77
2024/03/25 03:29:31;;;;;;;32.80;9.43;;;1.60;99.90;;;-144.05;91.30;57003.88;5087064;28;20024;-76
2024/03/25 03:31:57;;;;;;;37.03;9.52;;;1.90;99.90;;;-144.05;91.60;57031.50;5085251;28;20028;-79
2024/03/25 03:34:23;;;;;;;29.40;8.27;;;1.70;99.90;;;-144.05;91.82;57027.25;5087009;28;20469;-79
2024/03/25 03:36:49;;;;;;;29.42;8.73;;;;;;;-144.05;92.61;57031.50;5060059;28;20027;-79
2024/03/25 03:39:16;;;;;;;25.45;8.55;;;1.70;99.90;;;-144.05;93.24;57029.38;5081523;28;20038;-79
2024/03/25 03:41:41;;;;;;;25.95;7.32;;;2.10;99.90;;;-144.05;93.02;56989.00;5085233;28;20071;-79
2024/03/25 03:44:09;;;;;;;43.70;9.18;;;1.90;99.90;;;-144.05;92.56;57046.38;5068370;28;20055;-79
2024/03/25 03:46:35;;;;;;;19.33;7.07;;;1.30;99.90;;;-144.05;91.89;57040.00;5080015;28;20082;-80
2024/03/25 03:49:01;;;;;;;32.70;8.80;;;;;;;-144.05;91.26;57035.75;5067443;28;20393;-79
2024/03/25 03:51:27;;;;;;;31.27;8.75;;;1.60;99.90;;;-144.05;90.90;57033.63;5086638;28;20347;-79
2024/03/25 03:53:53;;;;;;;35.50;9.60;;;2.50;99.90;;;-144.05;91.15;57016.63;5076172;28;20055;-79
2024/03/25 03:56:19;;;;;;;33.63;8.10;;;1.30;99.90;;;-144.05;91.08;57035.75;5058152;28;20024;-80
2024/03/25 03:58:44;;;;;;;25.67;8.18;;;5.20;99.90;;;-144.05;91.50;57010.25;5083231;28;20039;-80
2024/03/25 04:01:18;;;;;;;33.08;8.85;;;1.20;99.90;;;-144.05;91.07;57029.38;5082829;28;20052;-79
2024/03/25 04:03:45;;;;;;;35.15;9.00;;;1.40;99.90;;;-144.05;91.58;57029.38;5059038;28;20032;-79
2024/03/25 04:06:13;;;;;;;32.17;8.35;;;4.70;99.90;;;-144.05;91.12;57033.63;5067981;28;20024;-81
2024/03/25 04:08:40;;;;;;;30.00;9.88;;;4.70;99.90;;;-144.05;91.73;57025.13;5085188;28;20024;-79
2024/03/25 04:11:07;;;;;;;34.97;10.80;;;1.40;99.90;;;-144.05;91.39;57029.38;5067831;28;20059;-80
2024/03/25 04:13:34;;;;;;;38.55;9.68;;;1.70;99.90;;;-144.05;91.10;57042.13;5076536;28;20523;-79
2024/03/25 04:16:05;;;;;;;29.17;8.98;;;1.50;99.90;;;-144.05;91.27;57054.88;5088599;28;20343;-78
2024/03/25 04:18:33;;;;;;;33.10;11.00;;;1.60;99.90;;;-144.05;90.97;57027.25;5082377;28;20396;-79
2024/03/25 04:21:00;;;;;;;28.02;10.88;;;1.60;99.90;;;-144.05;90.95;57025.13;5088585;28;20033;-79
2024/03/25 04:23:26;;;;;;;34.70;10.88;;;1.60;99.90;;;-144.05;91.28;57056.97;5090927;28;20024;-79
2024/03/25 04:25:52;;;;;;;39.35;10.25;;;1.10;99.90;;;-144.05;91.00;57023.00;5082233;28;20028;-81
2024/03/25 04:28:20;;;;;;;30.00;9.25;;;4.40;99.90;;;-144.05;90.85;57027.25;5085830;28;20031;-78
2024/03/25 04:30:55;;;;;;;27.02;9.30;;;1.60;99.90;;;-144.05;91.22;57050.63;5089330;28;20028;-79
2024/03/25 04:33:21;;;;;;;31.75;9.32;;;;;;;-144.05;90.94;57016.63;5082128;28;20113;-78
2024/03/25 04:35:48;;;;;;;34.13;9.88;;;1.70;99.90;;;-144.05;91.01;57046.38;5111934;28;20092;-77
2024/03/25 04:38:16;;;;;;;34.42;10.50;;;4.20;99.90;;;-144.05;90.91;57050.63;5101006;28;20028;-81
2024/03/25 04:40:44;;;;;;;29.92;10.27;;;1.10;99.90;;;-144.05;90.98;57025.13;5083906;28;20020;-78
2024/03/25 04:43:10;;;;;;;35.25;10.18;;;1.20;99.90;;;-144.05;91.10;57056.97;5092475;28;20106;-78
2024/03/25 04:45:36;;;;;;;35.63;10.77;;;1.00;99.90;;;-144.05;91.11;57020.88;5076020;28;20016;-78
2024/03/25 04:48:02;;;;;;;31.98;10.50;;;1.30;99.90;;;-144.05;91.40;57016.63;5084447;28;20063;-80
2024/03/25 04:50:29;;;;;;;24.60;9.57;;;0.70;99.90;;;-144.05;90.93;57050.63;5062354;28;20044;-79
2024/03/25 04:52:55;;;;;;;45.28;12.13;;;1.10;99.90;;;-144.05;91.79;57054.88;5059805;28;20025;-79
2024/03/25 04:55:21;;;;;;;37.55;11.48;;;;;;;-144.05;92.38;57042.13;5067284;28;20020;-80
2024/03/25 04:57:46;;;;;;;36.15;10.40;;;4.70;99.90;;;-144.05;92.95;57063.34;5081640;28;20017;-79
2024/03/25 05:00:13;;;;;;;42.55;11.50;;;0.40;99.90;;;-144.05;93.45;57044.25;5062113;28;20020;-79
2024/03/25 05:02:39;;;;;;;41.35;12.30;;;4.40;99.90;;;-144.05;93.89;57054.88;5080762;28;20023;-79
2024/03/25 05:05:07;;;;;;;42.25;11.52;;;4.10;99.90;;;-144.05;94.17;57025.13;5082207;28;20016;-79
2024/03/25 05:07:34;;;;;;;35.15;12.13;;;1.10;99.90;;;-144.05;93.56;57025.13;5067138;28;20397;-79
2024/03/25 05:09:59;;;;;;;36.00;10.73;;;1.40;99.90;;;-144.05;93.94;57023.00;5073448;28;20021;-79
2024/03/25 05:12:29;;;;;;;41.97;11.15;;;1.20;99.90;;;-144.05;94.08;57050.63;5082551;28;20051;-80
2024/03/25 05:14:58;;;;;;;39.67;11.32;;;0.60;99.90;;;-144.05;92.90;57056.97;5087707;28;20015;-78
2024/03/25 05:17:24;;;;;;;38.15;11.45;;;0.40;99.90;;;-144.05;94.07;57056.97;5082880;28;20370;-78
2024/03/25 05:19:50;;;;;;;37.97;11.20;;;;;;;-144.05;93.52;57069.72;5084280;28;20039;-79
2024/03/25 05:22:16;;;;;;;38.42;10.65;;;0.80;99.90;;;-144.05;93.96;57046.38;5076720;28;20477;-77
2024/03/25 05:24:43;;;;;;;29.15;11.07;;;;;;;-144.05;93.91;57023.00;5062042;28;20047;-78
2024/03/25 05:27:08;;;;;;;37.88;10.55;;;1.60;99.90;;;-144.05;94.19;57046.38;5086683;28;20032;-77
2024/03/25 05:29:35;;;;;;;37.05;10.95;;;;;;;-144.05;94.24;57031.50;5087041;28;20024;-79
2024/03/25 05:32:02;;;;;;;36.47;10.23;;;4.00;99.90;;;-144.05;94.52;57046.38;5085286;28;20020;-80
2024/03/25 05:34:30;;;;;;;40.90;10.30;;;1.10;99.90;;;-144.05;94.93;57035.75;5069323;28;20114;-77
2024/03/25 05:36:56;;;;;;;30.55;9.43;;;1.20;99.90;;;-144.05;94.69;57035.75;5081462;28;20020;-80
2024/03/25 05:39:22;;;;;;;42.50;10.48;;;1.40;99.90;;;-144.05;95.58;57067.59;5087197;28;20035;-78
2024/03/25 05:41:48;;;;;;;30.35;10.77;;;1.20;99.90;;;-144.05;95.34;57040.00;5066323;28;20103;-77
2024/03/25 05:44:15;;;;;;;33.65;10.32;;;1.20;99.90;;;-144.05;94.96;57029.38;5087167;28;20085;-77
2024/03/25 05:46:41;;;;;;;34.63;11.40;;;;;;;-144.05;95.24;57040.00;5085885;28;20148;-78
2024/03/25 05:49:07;;;;;;;33.47;10.18;;;0.90;99.90;;;-144.05;94.92;57014.50;5085573;28;20078;-79
2024/03/25 05:51:33;;;;;;;38.53;10.57;;;1.20;99.90;;;-144.05;94.54;57029.38;5086970;28;20032;-78
2024/03/25 05:54:00;;;;;;;38.35;9.82;;;0.80;99.90;;;-144.05;92.86;57025.13;5068068;28;20055;-79
2024/03/25 05:56:30;;;;;;;38.08;11.07;;;0.80;99.90;;;-144.05;92.45;57035.75;5088491;28;20020;-79
2024/03/25 05:58:57;;;;;;;37.78;9.85;;;1.20;99.90;;;-144.05;92.39;57042.13;5056877;28;20378;-79
2024/03/25 06:01:24;;;;;;;40.90;11.45;;;1.30;99.90;;;-144.05;91.65;57054.88;5069207;28;20103;-79
2024/03/25 06:03:50;;;;;;;36.50;11.07;;;;;;;-144.05;91.75;57050.63;5079829;28;20029;-80
2024/03/25 06:06:17;;;;;;;31.00;9.82;;;1.00;99.90;;;-144.05;91.88;57046.38;5079890;28;20032;-78
2024/03/25 06:08:43;;;;;;;30.05;10.18;;;1.00;99.90;;;-144.05;92.19;57031.50;5067223;28;20497;-77
2024/03/25 06:11:09;;;;;;;31.88;9.25;;;1.40;99.90;;;-144.05;91.93;57027.25;5087975;28;20029;-78
2024/03/25 06:13:35;;;;;;;34.25;9.68;;;1.00;99.90;;;-144.05;91.76;57048.50;5069731;28;20102;-78
2024/03/25 06:16:01;;;;;;;31.77;9.88;;;;;;;-144.05;91.40;57027.25;5086435;28;20021;-78
2024/03/25 06:18:27;;;;;;;33.05;10.00;;;1.30;99.90;;;-144.05;91.28;57052.75;5088475;28;20031;-79
2024/03/25 06:20:53;;;;;;;37.88;9.93;;;1.40;99.90;;;-144.05;91.42;57052.75;5070521;28;20028;-78
2024/03/25 06:23:28;;;;;;;28.15;9.93;;;1.10;99.90;;;-144.05;91.55;57044.25;5064016;28;20052;-77
2024/03/25 06:25:56;;;;;;;38.47;9.47;;;1.10;99.90;;;-144.05;91.38;57033.63;5080368;28;20064;-78
2024/03/25 06:28:22;;;;;;;32.13;9.93;;;1.00;99.90;;;-144.05;91.87;57044.25;5089384;28;20806;-78
2024/03/25 06:36:21;;;;;;;;;;;4.40;99.90;;;-144.05;91.75;57031.50;5077210;28;20058;-79
2024/03/25 06:38:47;;;;;;;;;;;4.40;99.90;;;-144.05;89.85;57029.38;5071626;28;20288;-79
2024/03/25 06:41:14;;;;;;;33.28;9.20;;;1.10;99.90;;;-144.05;89.91;57025.13;5080707;28;19908;-78
2024/03/25 06:43:40;;;;;;;29.98;8.88;;;5.40;99.90;;;-144.05;89.22;57054.88;5083773;28;20024;-77
2024/03/25 06:46:07;;;;;;;24.50;8.13;;;5.20;99.90;;;-144.05;88.75;57033.63;5085236;28;20040;-79
2024/03/25 06:48:34;;;;;;;33.20;8.52;;;1.40;99.90;;;-144.05;88.30;57020.88;5088170;28;20024;-79
2024/03/25 06:51:04;;;;;;;29.30;9.60;;;1.90;99.90;;;-144.05;88.45;57040.00;5091470;28;20634;-78
2024/03/25 06:53:30;;;;;;;30.15;8.95;;;2.20;99.90;;;-144.05;87.68;57020.88;5088667;28;20024;-80
2024/03/25 06:56:01;;;;;;;26.88;8.63;;;2.30;99.90;;;-144.05;86.88;57033.63;5081826;28;20024;-79
2024/03/25 06:58:28;;;;;;;34.38;9.38;;;5.70;99.90;;;-144.05;84.59;57016.63;5087496;28;20130;-78
2024/03/25 07:00:56;;;;;;;42.83;9.32;;;5.60;99.90;;;-144.05;83.89;57029.38;5072177;28;20956;-76
2024/03/25 07:03:23;;;;;;;24.88;7.45;;;3.00;99.90;;;-144.05;83.97;57018.75;5078238;28;20020;-77
2024/03/25 07:05:55;;;;;;;22.40;7.38;;;3.10;99.90;;;-144.05;83.82;57001.75;5087998;28;20035;-75
2024/03/25 07:08:21;;;;;;;23.67;7.38;;;2.70;99.90;;;-144.05;84.32;57023.00;5077865;28;20024;-78
2024/03/25 07:10:47;;;;;;;28.92;7.65;;;3.10;99.90;;;-144.05;83.71;57006.00;5087636;28;20107;-77
2024/03/25 07:13:14;;;;;;;28.48;8.02;;;6.40;99.90;;;-144.05;84.04;57046.38;5065380;28;20031;-77
2024/03/25 07:15:40;;;;;;;25.70;8.60;;;3.80;99.90;;;-144.05;84.16;57012.38;5081667;28;20020;-78
2024/03/25 07:18:07;;;;;;;24.08;8.10;;;3.10;99.90;;;-144.05;84.14;56995.38;5086043;28;20032;-77
2024/03/25 07:20:33;;;;;;;25.13;7.72;;;3.20;99.90;;;-144.05;83.46;56997.50;5086085;28;20389;-77
2024/03/25 07:22:59;;;;;;;29.20;7.57;;;6.90;99.90;;;-144.05;82.42;57020.88;5084632;28;20020;-76
2024/03/25 07:25:25;;;;;;;25.50;8.10;;;6.40;99.90;;;-144.05;82.06;56997.50;5068884;28;20035;-79
2024/03/25 07:27:52;;;;;;;24.48;7.47;;;4.50;99.90;;;-144.05;81.71;56995.38;5074185;28;20120;-77
2024/03/25 07:30:19;;;;;;;25.05;7.18;;;4.00;99.90;;;-144.05;80.91;57006.00;5065216;28;20020;-76
2024/03/25 07:32:45;;;;;;;25.88;7.20;;;4.80;99.90;;;-144.05;80.66;56999.63;5086357;28;20020;-75
2024/03/25 07:35:12;;;;;;;33.63;8.30;;;7.50;99.90;;;-144.05;80.97;57033.63;5067662;28;20512;-79
2024/03/25 07:37:38;;;;;;;40.63;8.75;;;4.70;99.90;;;-144.05;79.55;57018.75;5085935;28;20444;-79
2024/03/25 07:40:06;;;;;;;29.45;8.82;;;7.80;99.90;;;-144.05;77.22;56997.50;5084281;28;20027;-76
2024/03/25 07:42:31;;;;;;;27.35;7.22;;;8.20;99.90;;;-144.05;76.65;56989.00;5085303;28;20035;-78
2024/03/25 07:44:57;;;;;;;18.35;6.82;;;8.90;99.90;;;-144.05;74.79;56974.16;5082472;28;20025;-78
2024/03/25 07:47:23;;;;;;;21.95;6.57;;;7.10;99.90;;;-144.05;73.72;56991.13;5085786;28;20481;-76
2024/03/25 07:49:49;;;;;;;28.95;8.60;;;10.60;99.90;;;-144.05;72.11;56972.03;5079504;28;20023;-77
2024/03/25 07:52:15;;;;;;;22.83;6.45;;;9.00;99.90;;;-144.05;69.53;56995.38;5066859;28;20389;-80
2024/03/25 07:54:42;;;;;;;19.83;6.07;;;;;;;-144.05;70.88;56991.13;5061566;28;20027;-75
2024/03/25 07:57:09;;;;;;;22.83;5.80;;;10.40;99.90;;;-144.05;70.41;56982.66;5091078;28;20027;-78
2024/03/25 07:59:35;;;;;;;20.05;5.50;;;10.70;99.90;;;-144.05;69.68;57010.25;5069513;28;20037;-79
2024/03/25 08:02:01;;;;;;;20.15;6.95;;;;;;;-144.05;69.16;56997.50;5059611;28;20021;-78
2024/03/25 08:04:27;;;;;;;18.38;6.28;;;8.10;99.90;;;-144.05;68.43;56993.25;5077796;28;20512;-79
2024/03/25 08:06:53;;;;;;;24.45;6.30;;;;;;;-144.05;70.51;56993.25;5063725;28;20029;-77
2024/03/25 08:09:19;;;;;;;24.23;6.07;;;8.00;99.90;;;-144.05;72.28;56986.91;5084307;28;20027;-80
2024/03/25 08:11:45;;;;;;;24.77;5.70;;;8.60;99.90;;;-144.05;72.47;56997.50;5078784;28;20082;-77
2024/03/25 08:14:12;;;;;;;15.90;5.30;;;;;;;-144.05;71.47;56997.50;5084462;28;20491;-79
2024/03/25 08:16:38;;;;;;;18.35;6.18;;;7.90;99.90;;;-144.05;70.86;56991.13;5081965;28;20028;-75
2024/03/25 08:19:04;;;;;;;16.50;5.15;;;10.30;99.90;;;-144.05;70.59;57006.00;5062710;28;20152;-79
2024/03/25 08:21:30;;;;;;;23.90;6.85;;;10.80;99.90;;;-144.05;71.33;56995.38;5088728;28;20103;-78
2024/03/25 08:23:56;;;;;;;21.90;6.70;;;;;;;-144.05;70.97;56980.53;5080968;28;20086;-80
2024/03/25 08:26:22;;;;;;;20.35;6.63;;;7.70;99.90;;;-144.05;69.26;56997.50;5080743;28;20080;-78
2024/03/25 08:28:51;;;;;;;15.80;5.30;;;13.50;99.90;;;-144.05;67.43;56948.66;5066417;28;20055;-79
2024/03/25 08:31:17;;;;;;;18.55;6.10;;;7.60;99.90;;;-144.05;65.09;56986.91;5068559;28;20028;-78
2024/03/25 08:33:43;;;;;;;17.85;6.25;;;7.50;99.90;;;-144.05;66.73;56978.41;5062773;28;20024;-79
2024/03/25 08:36:08;;;;;;;15.75;5.45;;;7.80;99.90;;;-144.05;67.08;56984.78;5078044;28;20033;-79
2024/03/25 08:38:35;;;;;;;25.75;6.43;;;7.40;99.90;;;-144.05;65.96;56955.03;5087909;28;20047;-79
2024/03/25 08:41:01;;;;;;;19.80;5.32;;;10.80;99.90;;;-144.05;65.31;56967.78;5082825;28;20466;-79
2024/03/25 08:43:27;;;;;;;22.52;5.38;;;7.80;99.90;;;-144.05;66.44;56984.78;5068534;28;20096;-80
2024/03/25 08:45:53;;;;;;;15.40;4.13;;;7.50;99.90;;;-144.05;65.48;56986.91;5075204;28;20016;-78
2024/03/25 08:48:18;;;;;;;15.32;4.55;;;7.40;99.90;;;-144.05;63.40;57003.88;5063041;28;20025;-79
2024/03/25 08:50:44;;;;;;;15.95;4.30;;;7.30;99.90;;;-144.05;64.70;56995.38;5084498;28;20028;-81
2024/03/25 08:53:10;;;;;;;11.05;3.15;;;7.20;99.90;;;-144.05;63.74;56978.41;5080808;28;20496;-78
2024/03/25 08:55:36;;;;;;;17.27;3.95;;;7.40;99.90;;;-144.05;63.66;56997.50;5091338;28;20024;-77
2024/03/25 08:58:02;;;;;;;16.08;3.80;;;;;;;-144.05;62.23;56972.03;5075049;28;20031;-79
2024/03/25 09:00:29;;;;;;;13.25;3.83;;;9.00;99.90;;;-144.05;59.84;56957.16;5092330;28;20137;-77
2024/03/25 09:02:55;;;;;;;14.65;3.70;;;8.10;99.90;;;-144.05;61.11;56978.41;5099371;28;20029;-79
2024/03/25 09:05:22;;;;;;;13.40;3.72;;;8.90;99.90;;;-144.05;62.06;56993.25;5075687;28;20024;-78
2024/03/25 09:07:52;;;;;;;12.45;2.83;;;8.00;99.90;;;-144.05;59.49;57003.88;5091188;28;20031;-77
2024/03/25 09:13:03;;;;;;;12.55;3.10;;;7.30;99.90;;;-144.05;60.07;56989.00;5093865;28;20062;-78
2024/03/25 09:15:30;;;;;;;12.07;3.53;;;7.90;99.90;;;-144.05;59.75;56955.03;5101178;28;20115;-78
2024/03/25 09:17:56;;;;;;;15.45;2.83;;;13.70;99.90;;;-144.05;60.23;56963.53;5067289;28;20115;-79
2024/03/25 09:20:22;;;;;;;12.68;2.38;;;14.00;99.90;;;-144.05;56.47;56980.53;5089150;28;20038;-79
2024/03/25 09:22:49;;;;;;;12.88;2.42;;;;;;;-144.05;56.81;56961.41;5086245;28;20028;-79
2024/03/25 09:25:16;;;;;;;14.35;2.97;;;8.10;99.90;;;-144.05;53.66;56963.53;5082647;28;20054;-78
2024/03/25 09:27:50;;;;;;;11.65;3.00;;;8.20;99.90;;;-144.05;54.68;56965.66;5076524;28;20069;-78
2024/03/25 09:30:20;;;;;;;11.77;2.70;;;8.50;99.90;;;-144.05;52.67;56965.66;5067603;28;20055;-78
2024/03/25 09:32:47;;;;;;;19.77;2.35;;;;;;;-144.05;52.69;56989.00;5085426;28;20103;-78
2024/03/25 09:35:13;;;;;;;14.70;2.60;;;7.90;99.90;;;-144.05;53.23;56982.66;5083597;28;20028;-78
2024/03/25 09:37:39;;;;;;;11.15;2.35;;;7.90;99.90;;;-144.05;52.80;56963.53;5083898;28;20028;-79
2024/03/25 09:40:06;;;;;;;8.57;1.92;;;8.60;99.90;;;-144.05;52.21;56940.16;5083785;28;20073;-78
2024/03/25 09:42:48;;;;;;;12.50;3.28;;;8.50;99.90;;;-144.05;55.34;56961.41;5069126;28;20027;-78
2024/03/25 09:45:17;;;;;;;12.18;2.92;;;8.30;99.90;;;-144.05;55.86;56974.16;5066463;28;20443;-77
2024/03/25 09:47:48;;;;;;;12.23;3.03;;;9.00;99.90;;;-144.05;56.68;57006.00;5085401;28;20037;-76
2024/03/25 09:50:20;;;;;;;12.32;2.83;;;7.50;99.90;;;-144.05;58.63;56972.03;5087789;28;20029;-77
2024/03/25 09:52:50;;;;;;;14.32;2.63;;;8.40;99.90;;;-144.05;58.78;57010.25;5082496;28;20023;-76
2024/03/25 09:55:17;;;;;;;18.23;3.40;;;8.00;99.90;;;-144.05;58.23;56984.78;5086523;28;20080;-75
2024/03/25 09:57:44;;;;;;;15.57;2.95;;;;;;;-144.05;57.61;56989.00;5086609;28;20023;-77
2024/03/25 10:00:11;;;;;;;14.13;2.95;;;8.00;99.90;;;-144.05;57.77;56995.38;5086825;28;20029;-77
2024/03/25 10:02:41;;;;;;;14.43;2.88;;;8.00;99.90;;;-144.05;58.02;56967.78;5100132;28;20099;-77
2024/03/25 10:05:08;;;;;;;13.52;2.75;;;7.90;99.90;;;-144.05;57.90;56989.00;5090720;28;20046;-78
2024/03/25 10:07:35;;;;;;;14.85;3.25;;;10.70;99.90;;;-144.05;59.80;56972.03;5066953;28;20024;-79
2024/03/25 10:10:06;;;;;;;14.57;3.67;;;7.70;99.90;;;-144.05;56.77;56978.41;5067672;28;20025;-78
2024/03/25 10:12:33;;;;;;;13.07;2.97;;;7.70;99.90;;;-144.05;55.17;56969.91;5086047;28;20035;-78
2024/03/25 10:14:59;;;;;;;17.65;3.30;;;8.10;99.90;;;-144.05;54.24;56984.78;5062898;28;20093;-77
2024/03/25 10:17:25;;;;;;;13.85;3.63;;;;;;;-144.05;55.19;56976.28;5083788;28;20044;-78
2024/03/25 10:19:54;;;;;;;8.60;2.28;;;8.40;99.90;;;-144.05;55.47;57014.50;5084492;28;20435;-77